Time;durP1;ratioP1;P1;durP2;ratioP2;P2;SDS_P1;SDS_P2;PMS_P1;PMS_P2;Temp;Humidity;BMP_temperature;BMP_pressure;BME280_temperature;BME280_humidity;BME280_pressure;Samples;Min_cycle;Max_cycle;Signal;HPM_P1;HPM_P2
2022/11/08 00:01:31;;;;;;;2.47;1.90;;;;;;;;;;5091611;28;20431;-70
2022/11/08 00:03:58;;;;;;;4.17;2.30;;;;;;;;;;5080048;28;20439;-70
2022/11/08 00:14:41;;;;;;;3.50;2.20;;;;;;;;;;5092046;28;20929;-70
2022/11/08 00:17:09;;;;;;;4.07;2.17;;;;;;;;;;5091124;28;20540;-70
2022/11/08 00:19:37;;;;;;;3.30;2.03;;;;;;;;;;5092017;28;20466;-70
2022/11/08 00:22:04;;;;;;;3.67;1.97;;;;;;;;;;5091543;28;20979;-70
2022/11/08 00:24:31;;;;;;;4.60;3.47;;;;;;;;;;5092277;28;20491;-70
2022/11/08 00:26:58;;;;;;;6.93;3.43;;;;;;;;;;5091750;28;20602;-70
2022/11/08 00:29:25;;;;;;;5.07;3.00;;;;;;;;;;5091403;28;20481;-70
2022/11/08 00:31:54;;;;;;;3.87;2.07;;;;;;;;;;5091919;28;20474;-70
2022/11/08 00:34:21;;;;;;;3.90;2.60;;;;;;;;;;5090250;28;20461;-70
2022/11/08 00:36:48;;;;;;;3.70;2.83;;;;;;;;;;5091613;28;20450;-69
2022/11/08 00:39:15;;;;;;;10.87;2.30;;;;;;;;;;5091321;28;20464;-70
2022/11/08 00:41:42;;;;;;;5.67;2.77;;;;;;;;;;5091985;28;20866;-70
2022/11/08 00:44:09;;;;;;;4.40;3.33;;;;;;;;;;5091157;28;20454;-69
2022/11/08 00:46:37;;;;;;;3.40;2.40;;;;;;;;;;5091265;28;20455;-70
2022/11/08 00:49:06;;;;;;;2.70;2.33;;;;;;;;;;5090804;28;20555;-69
2022/11/08 00:51:33;;;;;;;5.00;3.23;;;;;;;;;;5091878;28;20448;-69
2022/11/08 00:54:01;;;;;;;3.10;2.00;;;;;;;;;;5091384;28;20457;-70
2022/11/08 00:56:28;;;;;;;2.77;2.13;;;;;;;;;;5090647;28;20482;-69
2022/11/08 00:58:55;;;;;;;3.97;2.40;;;;;;;;;;5091595;28;20446;-70
2022/11/08 01:01:22;;;;;;;5.93;3.30;;;;;;;;;;5090871;28;20458;-69
2022/11/08 01:03:49;;;;;;;4.07;1.87;;;;;;;;;;5090451;28;20896;-69
2022/11/08 01:06:19;;;;;;;2.57;2.00;;;;;;;;;;5091483;28;20452;-69
2022/11/08 01:08:48;;;;;;;2.60;2.37;;;;;;;;;;5083549;28;20483;-69
2022/11/08 01:11:16;;;;;;;7.37;2.90;;;;;;;;;;5091255;28;20448;-69
2022/11/08 01:13:43;;;;;;;4.90;2.10;;;;;;;;;;5091438;28;20452;-69
2022/11/08 01:16:12;;;;;;;3.70;2.57;;;;;;;;;;5089799;28;20446;-69
2022/11/08 01:18:39;;;;;;;4.30;2.97;;;;;;;;;;5090708;28;20838;-69
2022/11/08 01:21:06;;;;;;;4.03;3.07;;;;;;;;;;5090178;28;20450;-69
2022/11/08 01:23:35;;;;;;;4.07;2.77;;;13.20;1.00;;;;;;5091328;28;20457;-69
2022/11/08 01:26:04;;;;;;;4.40;3.10;;;;;;;;;;5091138;28;20445;-69
2022/11/08 01:28:31;;;;;;;4.10;1.83;;;;;;;;;;5079888;28;20452;-69
2022/11/08 01:30:58;;;;;;;2.90;2.20;;;;;;;;;;5090673;28;20456;-69
2022/11/08 01:33:25;;;;;;;4.77;2.27;;;;;;;;;;5089561;28;20977;-70
2022/11/08 01:35:52;;;;;;;4.47;2.43;;;;;;;;;;5090896;28;20450;-69
2022/11/08 01:38:20;;;;;;;2.60;2.40;;;;;;;;;;5089497;28;20955;-69
2022/11/08 01:40:49;;;;;;;3.77;2.57;;;;;;;;;;5090847;28;20456;-69
2022/11/08 01:43:35;;;;;;;3.00;1.97;;;;;;;;;;5090011;28;20952;-69
2022/11/08 01:46:17;;;;;;;2.07;1.87;;;;;;;;;;5090214;28;20598;-69
2022/11/08 01:48:47;;;;;;;4.93;2.03;;;;;;;;;;5073157;28;20852;-69
2022/11/08 01:51:15;;;;;;;3.33;2.57;;;;;;;;;;5090600;28;20454;-69
2022/11/08 01:53:42;;;;;;;4.63;2.53;;;;;;;;;;5090670;28;20467;-69
2022/11/08 01:56:11;;;;;;;2.50;1.87;;;;;;;;;;5089463;28;20450;-69
2022/11/08 01:58:39;;;;;;;6.93;2.97;;;;;;;;;;5090234;28;20463;-70
2022/11/08 02:01:07;;;;;;;3.83;2.10;;;;;;;;;;5089815;28;20796;-69
2022/11/08 02:03:35;;;;;;;4.90;2.23;;;;;;;;;;5103937;28;20446;-69
2022/11/08 02:06:02;;;;;;;2.73;2.07;;;;;;;;;;5089971;28;20452;-69
2022/11/08 02:08:33;;;;;;;4.20;2.70;;;;;;;;;;5090632;28;20490;-69
2022/11/08 02:11:01;;;;;;;3.17;1.93;;;;;;;;;;5090358;28;20457;-69
2022/11/08 02:13:31;;;;;;;2.87;2.10;;;;;;;;;;5089809;28;20438;-69
2022/11/08 02:15:58;;;;;;;2.77;2.03;;;;;;;;;;5090578;28;20451;-69
2022/11/08 02:18:27;;;;;;;3.50;2.07;;;;;;;;;;5089548;28;20483;-68
2022/11/08 02:20:59;;;;;;;2.90;1.93;;;;;;;;;;5092044;28;20460;-69
2022/11/08 02:23:28;;;;;;;11.70;2.10;;;;;;;;;;5088413;28;20452;-69
2022/11/08 02:25:56;;;;;;;4.30;1.90;;;;;;;;;;5094090;28;20491;-69
2022/11/08 02:28:23;;;;;;;1.83;1.70;;;;;;;;;;5094168;28;20694;-69
2022/11/08 02:30:50;;;;;;;2.33;1.87;;;;;;;;;;5092754;28;20490;-70
2022/11/08 02:33:19;;;;;;;4.93;2.57;;;;;;;;;;5096530;28;20449;-69
2022/11/08 02:35:48;;;;;;;2.87;2.40;;;;;;;;;;5098119;28;20438;-70
2022/11/08 02:38:16;;;;;;;2.10;1.80;;;;;;;;;;5098934;28;20444;-68
2022/11/08 02:40:47;;;;;;;2.00;1.90;;;;;;;;;;5100198;28;20452;-68
2022/11/08 02:43:15;;;;;;;3.90;1.87;;;;;;;;;;5099384;28;20457;-69
2022/11/08 02:45:42;;;;;;;1.80;1.50;;;;;;;;;;5102019;28;20460;-69
2022/11/08 02:48:09;;;;;;;2.53;1.90;;;;;;;;;;5100655;28;20819;-69
2022/11/08 02:50:36;;;;;;;4.07;2.17;;;;;;;;;;5098252;28;20481;-69
2022/11/08 02:53:04;;;;;;;4.50;1.77;;;;;;;;;;5096459;28;20454;-69
2022/11/08 02:55:31;;;;;;;2.90;1.70;;;;;;;;;;5093290;28;20959;-69
2022/11/08 02:57:59;;;;;;;3.80;2.50;;;;;;;;;;5095885;28;20505;-69
2022/11/08 03:00:27;;;;;;;3.43;2.60;;;;;;;;;;5094419;28;20949;-69
2022/11/08 03:02:55;;;;;;;5.67;2.07;;;;;;;;;;5093953;28;20456;-68
2022/11/08 03:05:23;;;;;;;2.87;2.40;;;;;;;;;;5093363;28;20472;-69
2022/11/08 03:07:50;;;;;;;2.30;1.50;;;;;;;;;;5093529;28;20450;-69
2022/11/08 03:10:18;;;;;;;6.10;1.90;;;;;;;;;;5093412;28;20484;-69
2022/11/08 03:12:45;;;;;;;3.13;2.10;;;;;;;;;;5093773;28;20459;-69
2022/11/08 03:15:13;;;;;;;2.93;2.07;;;;;;;;;;5092991;28;20451;-70
2022/11/08 03:17:41;;;;;;;2.73;1.90;;;;;;;;;;5093001;28;20621;-69
2022/11/08 03:20:09;;;;;;;3.80;2.43;;;;;;;;;;5079615;28;20494;-70
2022/11/08 03:22:36;;;;;;;4.13;2.23;;;;;;;;;;5093299;28;20433;-70
2022/11/08 03:25:03;;;;;;;3.07;2.37;;;;;;;;;;5093292;28;20449;-69
2022/11/08 03:27:30;;;;;;;2.07;1.90;;;;;;;;;;5092814;28;20455;-69
2022/11/08 03:29:57;;;;;;;1.87;1.10;;;;;;;;;;5092349;28;20472;-70
2022/11/08 03:32:25;;;;;;;3.30;2.90;;;;;;;;;;5091363;28;20467;-69
2022/11/08 03:34:53;;;;;;;1.97;1.20;;;;;;;;;;5092815;28;20472;-69
2022/11/08 03:37:21;;;;;;;2.80;1.67;;;;;;;;;;5091512;28;20449;-69
2022/11/08 03:39:49;;;;;;;6.00;2.23;;;;;;;;;;5092858;28;20460;-69
2022/11/08 03:42:16;;;;;;;1.67;1.30;;;;;;;;;;5087178;28;20451;-69
2022/11/08 03:44:43;;;;;;;3.00;2.03;;;;;;;;;;5092603;28;20532;-69
2022/11/08 03:47:10;;;;;;;4.80;1.80;;;;;;;;;;5091618;28;20551;-69
2022/11/08 03:49:37;;;;;;;2.40;2.20;;;;;;;;;;5092570;28;20492;-69
2022/11/08 03:52:06;;;;;;;2.17;1.53;;;;;;;;;;5091573;28;20448;-69
2022/11/08 03:54:33;;;;;;;2.10;1.83;;;;;;;;;;5091795;28;20455;-69
2022/11/08 03:57:00;;;;;;;2.40;1.83;;;;;;;;;;5091694;28;20459;-68
2022/11/08 03:59:27;;;;;;;2.77;1.27;;;;;;;;;;5091248;28;20452;-69
2022/11/08 04:01:54;;;;;;;2.50;1.70;;;;;;;;;;5092177;28;20511;-69
2022/11/08 04:04:21;;;;;;;2.97;1.70;;;;;;;;;;5091909;28;20539;-69
2022/11/08 04:06:49;;;;;;;2.40;1.90;;;;;;;;;;5091969;28;20451;-70
2022/11/08 04:09:17;;;;;;;5.80;1.87;;;;;;;;;;5086391;28;20790;-69
2022/11/08 04:17:12;;;;;;;3.53;1.80;;;6.30;99.90;;;;;;5088176;28;20431;-68
2022/11/08 04:22:23;;;;;;;3.77;1.80;;;6.20;99.90;;;;;;5091041;28;20717;-69
2022/11/08 04:24:51;;;;;;;2.20;1.40;;;6.10;99.90;;;;;;5091514;28;20820;-68
2022/11/08 04:27:18;;;;;;;1.60;1.43;;;6.20;99.90;;;;;;5090750;28;20456;-68
2022/11/08 04:29:45;;;;;;;4.83;2.13;;;6.20;99.90;;;;;;5091454;28;20484;-68
2022/11/08 04:32:12;;;;;;;2.93;1.70;;;6.20;99.90;;;;;;5090386;28;20963;-68
2022/11/08 04:34:38;;;;;;;2.47;1.63;;;6.20;99.90;;;;;;5077917;28;20465;-70
2022/11/08 04:37:05;;;;;;;2.17;1.87;;;6.20;99.90;;;;;;5090090;28;20456;-70
2022/11/08 04:39:32;;;;;;;3.10;2.20;;;6.20;99.90;;;;;;5091333;28;20447;-68
2022/11/08 04:42:00;;;;;;;5.17;2.50;;;6.30;99.90;;;;;;5091428;28;20765;-70
2022/11/08 04:44:27;;;;;;;2.50;2.30;;;6.30;99.90;;;;;;5089688;28;20448;-69
2022/11/08 04:46:54;;;;;;;1.67;1.57;;;6.40;99.90;;;;;;5090416;28;20809;-68
2022/11/08 04:49:21;;;;;;;2.83;1.90;;;6.30;99.90;;;;;;5090163;28;20486;-68
2022/11/08 04:51:47;;;;;;;3.83;2.40;;;6.30;99.90;;;;;;5091568;28;20514;-68
2022/11/08 04:54:14;;;;;;;2.30;2.10;;;6.40;99.90;;;;;;5087170;28;20456;-68
2022/11/08 04:56:41;;;;;;;1.90;1.67;;;6.30;99.90;;;;;;5080340;28;20448;-68
2022/11/08 04:59:10;;;;;;;2.50;1.63;;;6.30;99.90;;;;;;5090755;28;20477;-68
2022/11/08 05:01:37;;;;;;;2.10;1.57;;;6.30;99.90;;;;;;5089653;28;20950;-69
2022/11/08 05:04:04;;;;;;;5.10;2.70;;;6.30;99.90;;;;;;5090828;28;20448;-69
2022/11/08 05:06:31;;;;;;;3.93;2.07;;;6.40;99.90;;;;;;5091922;28;20459;-70
2022/11/08 05:09:00;;;;;;;2.50;1.80;;;6.40;99.90;;;;;;5092182;28;20448;-69
2022/11/08 05:11:28;;;;;;;2.77;1.77;;;6.40;99.90;;;;;;5089868;28;20511;-71
2022/11/08 05:13:55;;;;;;;2.63;2.00;;;6.40;99.90;;;;;;5092282;28;20466;-70
2022/11/08 05:16:25;;;;;;;2.57;1.70;;;6.40;99.90;;;;;;5091730;28;20857;-69
2022/11/08 05:18:53;;;;;;;4.57;2.10;;;6.40;99.90;;;;;;5091723;28;20463;-70
2022/11/08 05:24:07;;;;;;;3.63;1.90;;;6.40;99.90;;;;;;5090729;28;20435;-69
2022/11/08 05:26:36;;;;;;;12.10;2.63;;;6.40;99.90;;;;;;5091176;28;20923;-69
2022/11/08 05:29:03;;;;;;;2.20;1.63;;;6.30;99.90;;;;;;5091249;28;20455;-69
2022/11/08 05:31:32;;;;;;;2.37;1.30;;;6.30;99.90;;;;;;5091051;28;20516;-69
2022/11/08 05:33:59;;;;;;;2.57;1.80;;;6.20;99.90;;;;;;5091212;28;20456;-70
2022/11/08 05:36:27;;;;;;;1.87;1.17;;;6.20;99.90;;;;;;5090862;28;20462;-69
2022/11/08 05:38:55;;;;;;;1.40;1.20;;;6.30;99.90;;;;;;5091113;28;20452;-69
2022/11/08 05:41:23;;;;;;;3.50;1.50;;;6.30;99.90;;;;;;5090371;28;20487;-69
2022/11/08 05:43:51;;;;;;;4.70;1.60;;;6.20;99.90;;;;;;5090959;28;20453;-70
2022/11/08 05:46:19;;;;;;;3.40;1.53;;;6.20;99.90;;;;;;5090735;28;20822;-69
2022/11/08 05:48:48;;;;;;;4.43;2.10;;;6.30;99.90;;;;;;5090396;28;21021;-69
2022/11/08 05:51:16;;;;;;;2.20;1.50;;;6.30;99.90;;;;;;5090358;28;20832;-69
2022/11/08 05:53:43;;;;;;;2.03;1.40;;;6.20;99.90;;;;;;5091181;28;20495;-69
2022/11/08 05:56:10;;;;;;;2.90;1.83;;;6.20;99.90;;;;;;5092406;28;20453;-69
2022/11/08 05:58:37;;;;;;;2.47;1.50;;;6.10;99.90;;;;;;5094912;28;20549;-69
2022/11/08 06:01:06;;;;;;;3.93;1.53;;;6.10;99.90;;;;;;5094201;28;20939;-69
2022/11/08 06:03:33;;;;;;;2.67;1.97;;;6.30;99.90;;;;;;5094522;28;20788;-69
2022/11/08 06:06:04;;;;;;;2.60;1.70;;;6.30;99.90;;;;;;5094978;28;20954;-69
2022/11/08 06:08:31;;;;;;;2.57;1.60;;;6.50;99.90;;;;;;5095082;28;20471;-70
2022/11/08 06:11:02;;;;;;;3.70;1.70;;;6.40;99.90;;;;;;5094756;28;20518;-69
2022/11/08 06:13:29;;;;;;;2.33;1.57;;;6.40;99.90;;;;;;5094676;28;20439;-69
2022/11/08 06:15:58;;;;;;;2.50;1.43;;;6.40;99.90;;;;;;5094859;28;20459;-69
2022/11/08 06:18:25;;;;;;;5.83;1.63;;;6.30;99.90;;;;;;5094098;28;20553;-70
2022/11/08 06:20:52;;;;;;;3.40;2.03;;;6.40;99.90;;;;;;5094785;28;20455;-69
2022/11/08 06:23:20;;;;;;;3.97;2.20;;;6.30;99.90;;;;;;5093805;28;20837;-69
2022/11/08 06:25:47;;;;;;;2.10;1.90;;;6.30;99.90;;;;;;5094723;28;20444;-69
2022/11/08 06:28:14;;;;;;;2.83;2.13;;;6.20;99.90;;;;;;5094308;28;20448;-69
2022/11/08 06:30:41;;;;;;;2.80;1.57;;;6.20;99.90;;;;;;5094147;28;20478;-69
2022/11/08 06:33:08;;;;;;;3.03;1.70;;;6.20;99.90;;;;;;5079949;28;20470;-69
2022/11/08 06:35:36;;;;;;;2.50;1.83;;;6.20;99.90;;;;;;5094140;28;20462;-69
2022/11/08 06:38:03;;;;;;;2.80;2.33;;;6.30;99.90;;;;;;5081309;28;20807;-70
2022/11/08 06:40:32;;;;;;;2.10;1.50;;;6.30;99.90;;;;;;5094443;28;20833;-68
2022/11/08 06:42:59;;;;;;;2.90;1.60;;;6.40;99.90;;;;;;5093734;28;20931;-70
2022/11/08 06:45:26;;;;;;;3.90;2.10;;;6.50;99.90;;;;;;5093562;28;20451;-69
2022/11/08 06:47:58;;;;;;;3.80;2.43;;;6.60;99.90;;;;;;5093477;28;20463;-69
2022/11/08 06:50:24;;;;;;;15.37;1.90;;;6.50;99.90;;;;;;5093451;28;20475;-70
2022/11/08 06:52:56;;;;;;;3.30;2.77;;;6.50;99.90;;;;;;5093734;28;20452;-69
2022/11/08 06:55:23;;;;;;;3.07;1.97;;;6.50;99.90;;;;;;5093708;28;20511;-69
2022/11/08 06:57:51;;;;;;;3.03;2.00;;;6.50;99.90;;;;;;5093754;28;20460;-69
2022/11/08 07:00:18;;;;;;;3.90;2.10;;;6.50;99.90;;;;;;5093473;28;20450;-69
2022/11/08 07:02:45;;;;;;;2.43;1.90;;;6.50;99.90;;;;;;5093476;28;20871;-69
2022/11/08 07:05:12;;;;;;;8.40;2.43;;;6.40;99.90;;;;;;5093117;28;20449;-70
2022/11/08 07:07:39;;;;;;;3.30;2.27;;;6.40;99.90;;;;;;5092901;28;20458;-69
2022/11/08 07:10:07;;;;;;;2.83;2.00;;;6.60;99.90;;;;;;5079593;28;20457;-70
2022/11/08 07:12:34;;;;;;;2.30;2.00;;;6.70;99.90;;;;;;5093456;28;20462;-69
2022/11/08 07:15:02;;;;;;;3.33;2.07;;;6.70;99.90;;;;;;5093691;28;20933;-69
2022/11/08 07:17:29;;;;;;;5.07;2.33;;;6.80;99.90;;;;;;5093401;28;20581;-70
2022/11/08 07:19:55;;;;;;;4.87;2.03;;;7.20;99.90;;;;;;5093461;28;20942;-69
2022/11/08 07:22:22;;;;;;;2.40;1.77;;;7.10;99.90;;;;;;5092714;28;20455;-69
2022/11/08 07:24:49;;;;;;;2.37;1.83;;;7.10;99.90;;;;;;5093583;28;20444;-69
2022/11/08 07:27:16;;;;;;;2.63;1.90;;;7.20;99.90;;;;;;5093108;28;20455;-69
2022/11/08 07:29:43;;;;;;;2.60;2.40;;;7.20;99.90;;;;;;5093099;28;20958;-69
2022/11/08 07:32:11;;;;;;;2.77;2.07;;;7.50;99.90;;;;;;5092207;28;20494;-69
2022/11/08 07:34:38;;;;;;;3.33;1.73;;;7.60;99.90;;;;;;5093310;28;20500;-69
2022/11/08 07:37:04;;;;;;;5.33;2.40;;;7.50;99.90;;;;;;5092523;28;20452;-69
2022/11/08 07:39:31;;;;;;;4.60;2.00;;;7.40;99.90;;;;;;5093226;28;20474;-69
2022/11/08 07:41:58;;;;;;;2.40;2.20;;;7.50;99.90;;;;;;5092775;28;20454;-69
2022/11/08 07:44:25;;;;;;;2.00;1.63;;;7.60;99.90;;;;;;5092518;28;20452;-68
2022/11/08 07:46:51;;;;;;;2.77;2.53;;;8.20;99.90;;;;;;5092800;28;20454;-69
2022/11/08 07:49:20;;;;;;;3.50;2.60;;;8.60;99.90;;;;;;5092243;28;20486;-69
2022/11/08 07:51:47;;;;;;;4.23;2.17;;;8.60;99.90;;;;;;5092485;28;20851;-69
2022/11/08 07:54:14;;;;;;;2.40;1.97;;;8.40;99.90;;;;;;5078995;28;20457;-69
2022/11/08 07:56:40;;;;;;;2.73;2.30;;;8.20;99.90;;;;;;5092830;28;20451;-69
2022/11/08 07:59:07;;;;;;;5.03;2.87;;;8.20;99.90;;;;;;5092379;28;20802;-69
2022/11/08 08:01:34;;;;;;;3.20;2.00;;;8.30;99.90;;;;;;5092369;28;20808;-69
2022/11/08 08:04:01;;;;;;;3.20;2.10;;;8.40;99.90;;;;;;5092853;28;20456;-69
2022/11/08 08:06:29;;;;;;;3.30;2.50;;;8.60;99.90;;;;;;5092327;28;20459;-69
2022/11/08 08:08:56;;;;;;;2.23;2.03;;;8.70;99.90;;;;;;5092576;28;20443;-69
2022/11/08 08:11:23;;;;;;;2.47;1.90;;;8.80;99.90;;;;;;5091284;28;21178;-69
2022/11/08 08:13:50;;;;;;;1.97;1.53;;;9.00;99.90;;;;;;5092530;28;20515;-69
2022/11/08 08:16:17;;;;;;;3.00;1.60;;;9.20;55.10;;;;;;5091721;28;20510;-69
2022/11/08 08:18:43;;;;;;;2.77;2.30;;;9.20;28.70;;;;;;5091702;28;20457;-69
2022/11/08 08:21:10;;;;;;;3.63;1.47;;;9.40;1.00;;;;;;5091145;28;20455;-69
2022/11/08 08:23:38;;;;;;;3.40;1.33;;;9.50;1.00;;;;;;5092330;28;20472;-69
2022/11/08 08:26:05;;;;;;;2.80;2.33;;;9.70;1.00;;;;;;5091347;28;20463;-69
2022/11/08 08:28:32;;;;;;;3.57;1.70;;;9.90;1.00;;;;;;5092328;28;20449;-69
2022/11/08 08:30:59;;;;;;;2.10;1.40;;;10.00;1.00;;;;;;5091553;28;20482;-69
2022/11/08 08:33:26;;;;;;;2.57;1.57;;;10.30;99.90;;;;;;5091556;28;20788;-69
2022/11/08 08:35:53;;;;;;;3.90;1.87;;;10.40;99.90;;;;;;5092157;28;20451;-69
2022/11/08 08:38:20;;;;;;;3.20;1.90;;;10.50;37.40;;;;;;5091280;28;20546;-69
2022/11/08 08:40:48;;;;;;;1.60;1.43;;;10.60;1.00;;;;;;5092060;28;20840;-69
2022/11/08 08:43:15;;;;;;;2.40;1.23;;;10.80;8.60;;;;;;5090933;28;20458;-69
2022/11/08 08:45:42;;;;;;;2.00;1.00;;;11.10;99.90;;;;;;5092006;28;20450;-69
2022/11/08 08:48:09;;;;;;;1.40;1.30;;;;;;;;;;5091152;28;21015;-69
2022/11/08 08:50:36;;;;;;;2.17;1.37;;;11.30;1.00;;;;;;5091752;28;20447;-70
2022/11/08 08:53:05;;;;;;;2.90;1.17;;;11.60;1.00;;;;;;5091171;28;20453;-69
2022/11/08 08:55:34;;;;;;;1.40;1.20;;;11.60;1.00;;;;;;5091491;28;20445;-69
2022/11/08 08:58:02;;;;;;;1.43;1.00;;;11.60;1.00;;;;;;5092035;28;20453;-70
2022/11/08 09:00:29;;;;;;;1.97;1.30;;;11.70;1.00;;;;;;5091913;28;20455;-69
2022/11/08 09:02:56;;;;;;;1.40;0.97;;;11.80;1.00;;;;;;5090897;28;20444;-69
2022/11/08 09:05:23;;;;;;;1.93;1.20;;;11.70;1.00;;;;;;5091164;28;20783;-70
2022/11/08 09:07:54;;;;;;;3.53;1.30;;;11.70;1.00;;;;;;5091889;28;20544;-69
2022/11/08 09:10:20;;;;;;;1.50;1.17;;;11.80;1.00;;;;;;5091168;28;20869;-69
2022/11/08 09:12:48;;;;;;;2.80;1.77;;;11.80;1.00;;;;;;5091697;28;20551;-69
2022/11/08 09:15:17;;;;;;;2.00;1.33;;;11.80;99.90;;;;;;5071176;28;20454;-69
2022/11/08 09:17:44;;;;;;;1.50;1.40;;;11.90;1.00;;;;;;5084812;28;20466;-69
2022/11/08 09:20:13;;;;;;;1.90;1.70;;;11.90;10.50;;;;;;5091718;28;20532;-69
2022/11/08 09:22:40;;;;;;;2.60;1.60;;;11.90;99.90;;;;;;5091553;28;20839;-70
2022/11/08 09:25:09;;;;;;;1.77;1.47;;;12.00;99.70;;;;;;5091107;28;20462;-69
2022/11/08 09:27:36;;;;;;;2.70;1.63;;;12.10;89.20;;;;;;5091458;28;20448;-69
2022/11/08 09:30:03;;;;;;;1.23;1.10;;;12.10;99.90;;;;;;5091411;28;20457;-70
2022/11/08 09:32:31;;;;;;;2.60;1.70;;;12.10;1.00;;;;;;5095017;28;20480;-70
2022/11/08 09:34:58;;;;;;;1.67;1.50;;;12.10;99.90;;;;;;5095292;28;20940;-70
2022/11/08 09:37:26;;;;;;;1.90;1.43;;;12.20;1.00;;;;;;5094944;28;20445;-69
2022/11/08 09:39:53;;;;;;;1.50;1.40;;;12.30;1.00;;;;;;5095511;28;20545;-69
2022/11/08 09:42:35;;;;;;;4.70;2.37;;;12.40;99.90;;;;;;5094712;28;20453;-69
2022/11/08 09:45:18;;;;;;;1.53;1.30;;;12.40;1.00;;;;;;5095578;28;20444;-70
2022/11/08 09:47:49;;;;;;;1.83;1.20;;;12.60;99.90;;;;;;5081748;28;20456;-69
2022/11/08 09:50:21;;;;;;;1.97;1.37;;;12.90;1.00;;;;;;5094778;28;20447;-69
2022/11/08 09:52:53;;;;;;;2.50;0.90;;;13.10;1.00;;;;;;5094720;28;20538;-69
2022/11/08 09:55:26;;;;;;;2.20;1.10;;;13.40;44.80;;;;;;5094617;28;20445;-69
2022/11/08 09:58:15;;;;;;;2.20;1.50;;;13.60;1.00;;;;;;5095302;28;20449;-69
2022/11/08 10:00:42;;;;;;;2.00;1.07;;;14.00;99.90;;;;;;5081837;28;20441;-70
2022/11/08 10:03:14;;;;;;;1.43;1.07;;;14.00;19.60;;;;;;5093933;28;20816;-70
2022/11/08 10:05:46;;;;;;;1.53;1.10;;;14.20;99.90;;;;;;5095112;28;20441;-70
2022/11/08 10:08:24;;;;;;;1.20;1.00;;;14.20;99.90;;;;;;5094178;28;20939;-70
2022/11/08 10:11:06;;;;;;;0.90;0.80;;;14.30;99.90;;;;;;5094579;28;20440;-70
2022/11/08 10:13:45;;;;;;;2.53;0.90;;;14.30;99.90;;;;;;5094619;28;20955;-70
2022/11/08 10:16:23;;;;;;;1.73;1.33;;;14.20;99.90;;;;;;5094186;28;20455;-70
2022/11/08 10:19:04;;;;;;;1.27;0.70;;;14.30;99.90;;;;;;5094334;28;20467;-70
2022/11/08 10:21:55;;;;;;;1.00;0.90;;;14.30;99.90;;;;;;5094443;28;20462;-71
2022/11/08 10:24:34;;;;;;;1.03;0.87;;;14.30;99.90;;;;;;5094048;28;20448;-70
2022/11/08 10:27:01;;;;;;;2.17;1.10;;;14.30;99.90;;;;;;5094723;28;20444;-70
2022/11/08 10:29:33;;;;;;;1.23;0.80;;;14.20;99.90;;;;;;5093755;28;20451;-70
2022/11/08 10:32:12;;;;;;;1.17;0.90;;;14.20;99.90;;;;;;5094150;28;20494;-70
2022/11/08 10:34:47;;;;;;;1.47;0.90;;;14.10;99.90;;;;;;5094388;28;20443;-70
2022/11/08 10:37:16;;;;;;;1.30;0.97;;;14.20;99.90;;;;;;5093813;28;20436;-70
2022/11/08 10:39:48;;;;;;;1.87;1.10;;;14.10;99.90;;;;;;5094417;28;20448;-70
2022/11/08 10:42:20;;;;;;;3.10;0.90;;;14.10;99.90;;;;;;5093265;28;21040;-70
2022/11/08 10:44:46;;;;;;;1.90;1.00;;;14.20;99.90;;;;;;5094376;28;20458;-69
2022/11/08 10:47:21;;;;;;;2.03;1.30;;;14.20;99.90;;;;;;5093657;28;20463;-70
2022/11/08 10:49:51;;;;;;;1.90;1.23;;;14.30;99.90;;;;;;5093767;28;21030;-71
2022/11/08 10:52:19;;;;;;;2.20;1.43;;;14.40;99.90;;;;;;5092859;28;20991;-69
2022/11/08 10:54:49;;;;;;;1.10;0.90;;;14.70;99.90;;;;;;5094090;28;20445;-69
2022/11/08 10:57:19;;;;;;;1.30;0.90;;;14.80;99.90;;;;;;5093507;28;20453;-70
2022/11/08 10:59:46;;;;;;;2.30;0.90;;;14.80;99.90;;;;;;5093792;28;20453;-70
2022/11/08 11:02:25;;;;;;;1.80;0.90;;;15.00;99.90;;;;;;5092357;28;20491;-69
2022/11/08 11:05:12;;;;;;;1.30;1.00;;;15.20;99.90;;;;;;5093686;28;20448;-70
2022/11/08 11:07:39;;;;;;;1.97;1.20;;;15.20;99.90;;;;;;5093682;28;20490;-70
2022/11/08 11:10:22;;;;;;;1.23;1.00;;;15.20;99.90;;;;;;5093345;28;20444;-70
2022/11/08 11:12:50;;;;;;;1.87;1.00;;;15.20;99.90;;;;;;5093461;28;20525;-70
2022/11/08 11:15:18;;;;;;;1.60;1.20;;;15.10;99.90;;;;;;5079883;28;20924;-70
2022/11/08 11:17:46;;;;;;;2.60;1.20;;;15.30;99.90;;;;;;5093581;28;20771;-70
2022/11/08 11:20:22;;;;;;;1.70;1.13;;;15.50;99.90;;;;;;5093034;28;20445;-70
2022/11/08 11:22:51;;;;;;;3.60;1.00;;;15.50;99.90;;;;;;5093209;28;20477;-70
2022/11/08 11:25:20;;;;;;;2.00;1.00;;;15.40;99.90;;;;;;5092740;28;20511;-70
2022/11/08 11:27:53;;;;;;;3.83;1.53;;;15.30;99.90;;;;;;5093483;28;20444;-70
2022/11/08 11:30:28;;;;;;;2.73;1.03;;;15.30;99.90;;;;;;5092999;28;20444;-70
2022/11/08 11:32:57;;;;;;;1.40;1.30;;;15.30;99.90;;;;;;5092414;28;20472;-71
2022/11/08 11:35:32;;;;;;;4.00;1.20;;;15.30;99.90;;;;;;5092714;28;20456;-70
2022/11/08 11:38:01;;;;;;;1.10;0.80;;;15.60;99.90;;;;;;5080587;28;20455;-71
2022/11/08 11:40:36;;;;;;;2.07;0.93;;;16.00;99.90;;;;;;5092339;28;20960;-70
2022/11/08 11:43:09;;;;;;;2.47;1.20;;;16.10;99.90;;;;;;5093287;28;20477;-70
2022/11/08 11:45:43;;;;;;;2.10;1.00;;;16.50;99.90;;;;;;5093099;28;20441;-71
2022/11/08 11:48:16;;;;;;;1.67;1.00;;;16.80;99.90;;;;;;5091388;28;20487;-70
2022/11/08 11:50:48;;;;;;;3.50;0.77;;;16.60;99.90;;;;;;5092261;28;20444;-71
2022/11/08 11:53:18;;;;;;;1.10;0.83;;;16.40;99.90;;;;;;5091661;28;20468;-70
2022/11/08 11:56:10;;;;;;;1.67;1.20;;;16.30;99.90;;;;;;5092877;28;20467;-71
2022/11/08 11:58:54;;;;;;;1.00;0.90;;;16.40;99.90;;;;;;5092847;28;20440;-70
2022/11/08 12:01:32;;;;;;;1.73;1.00;;;16.40;99.90;;;;;;5091684;28;20440;-71
2022/11/08 12:04:22;;;;;;;1.63;1.00;;;16.80;99.90;;;;;;5080082;28;20916;-71
2022/11/08 12:06:59;;;;;;;1.27;0.93;;;17.30;99.90;;;;;;5092264;28;20900;-70
2022/11/08 12:09:41;;;;;;;1.47;0.87;;;17.20;99.90;;;;;;5091248;28;21106;-70
2022/11/08 12:12:22;;;;;;;1.43;1.10;;;17.50;99.90;;;;;;5079164;28;20983;-70
2022/11/08 12:15:00;;;;;;;2.67;1.20;;;17.80;99.90;;;;;;5092241;28;20440;-71
2022/11/08 12:17:53;;;;;;;1.57;0.97;;;18.20;99.90;;;;;;5092034;28;20452;-70
2022/11/08 12:20:37;;;;;;;1.93;1.03;;;18.40;99.90;;;;;;5091638;28;20445;-70
2022/11/08 12:23:23;;;;;;;2.10;1.03;;;18.40;99.90;;;;;;5091534;28;20880;-70
2022/11/08 12:25:58;;;;;;;1.30;0.90;;;18.40;99.90;;;;;;5092370;28;20437;-71
2022/11/08 12:28:44;;;;;;;1.37;0.90;;;18.60;99.90;;;;;;5091866;28;20448;-70
2022/11/08 12:31:25;;;;;;;1.77;0.77;;;18.60;99.90;;;;;;5090945;28;20453;-70
2022/11/08 12:34:02;;;;;;;1.10;1.00;;;18.80;99.90;;;;;;5091729;28;20542;-71
2022/11/08 12:36:36;;;;;;;0.80;0.60;;;18.70;99.90;;;;;;5079832;28;20440;-71
2022/11/08 12:39:16;;;;;;;1.00;0.90;;;18.90;99.90;;;;;;5091907;28;20502;-70
2022/11/08 12:41:58;;;;;;;1.77;0.70;;;19.10;99.90;;;;;;5091340;28;20452;-70
2022/11/08 12:44:52;;;;;;;1.13;0.73;;;19.00;99.90;;;;;;5090779;28;20964;-70
2022/11/08 12:47:27;;;;;;;2.57;1.07;;;19.00;99.90;;;;;;5088710;28;20467;-70
2022/11/08 12:50:07;;;;;;;1.27;0.80;;;19.00;99.90;;;;;;5091080;28;20490;-71
2022/11/08 12:52:59;;;;;;;3.20;0.90;;;19.40;99.90;;;;;;5090733;28;20477;-70
2022/11/08 12:55:34;;;;;;;1.30;0.90;;;19.40;99.90;;;;;;5090682;28;20440;-71
2022/11/08 12:58:06;;;;;;;1.20;1.07;;;19.10;99.90;;;;;;5091191;28;20451;-70
2022/11/08 13:00:35;;;;;;;0.70;0.50;;;19.40;99.90;;;;;;5090529;28;20456;-71
2022/11/08 13:03:19;;;;;;;1.17;0.80;;;18.90;99.90;;;;;;5090986;28;20452;-70
2022/11/08 13:05:55;;;;;;;1.23;0.60;;;18.70;99.90;;;;;;5079264;28;20472;-70
2022/11/08 13:08:31;;;;;;;1.00;0.80;;;18.80;99.90;;;;;;5090592;28;20805;-71
2022/11/08 13:11:04;;;;;;;1.37;0.73;;;18.80;99.90;;;;;;5090570;28;20440;-70
2022/11/08 13:13:45;;;;;;;1.20;0.77;;;18.70;99.90;;;;;;5090692;28;20845;-70
2022/11/08 13:16:15;;;;;;;1.37;0.77;;;19.00;99.90;;;;;;5090616;28;20447;-70
2022/11/08 13:18:47;;;;;;;3.37;0.83;;;19.50;99.90;;;;;;5090653;28;20803;-70
2022/11/08 13:21:36;;;;;;;2.10;0.80;;;19.50;99.90;;;;;;5090388;28;20607;-71
2022/11/08 13:24:35;;;;;;;2.00;1.20;;;19.60;99.90;;;;;;5090544;28;20453;-70
2022/11/08 13:27:32;;;;;;;2.10;0.80;;;19.30;99.90;;;;;;5081575;28;20955;-70
2022/11/08 13:30:04;;;;;;;1.20;0.90;;;19.00;99.90;;;;;;5078539;28;20814;-70
2022/11/08 13:32:44;;;;;;;2.10;1.33;;;18.50;99.90;;;;;;5090449;28;20490;-70
2022/11/08 13:35:19;;;;;;;2.00;0.83;;;18.40;99.90;;;;;;5090424;28;20449;-70
2022/11/08 13:37:55;;;;;;;2.27;1.17;;;18.40;99.90;;;;;;5090730;28;20452;-70
2022/11/08 13:40:30;;;;;;;1.83;1.10;;;18.30;99.90;;;;;;5090275;28;20523;-70
2022/11/08 13:43:19;;;;;;;1.03;0.70;;;18.20;99.90;;;;;;5078472;28;20452;-70
2022/11/08 13:45:46;;;;;;;1.57;0.80;;;18.00;99.90;;;;;;5090720;28;20996;-70
2022/11/08 13:48:35;;;;;;;1.10;1.00;;;17.80;99.90;;;;;;5090040;28;20495;-70
2022/11/08 13:51:38;;;;;;;1.00;0.80;;;17.80;99.90;;;;;;5077384;28;20437;-70
2022/11/08 13:54:44;;;;;;;1.63;0.87;;;17.70;99.90;;;;;;5090069;28;20490;-70
2022/11/08 13:57:18;;;;;;;2.73;1.17;;;17.60;99.90;;;;;;5090079;28;20452;-71
2022/11/08 13:59:56;;;;;;;0.97;0.70;;;17.80;99.90;;;;;;5091394;28;20445;-72